createdAt,value
2022-08-11T00:01:16.800Z,101822.41
2022-08-11T00:03:51.600Z,101826.06
2022-08-11T00:06:29.971Z,101821.19
2022-08-11T00:08:58.941Z,101822.88
2022-08-11T00:11:35.785Z,101816.19
2022-08-11T00:14:06.468Z,101812.22
2022-08-11T00:16:35.597Z,101818.72
2022-08-11T00:19:05.117Z,101818.94
2022-08-11T00:22:04.087Z,101818.84
2022-08-11T00:24:53.321Z,101814.53
2022-08-11T00:27:22.438Z,101823.34
2022-08-11T00:29:55.370Z,101819.78
2022-08-11T00:32:24.092Z,101820.78
2022-08-11T00:34:53.156Z,101817.94
2022-08-11T00:37:50.419Z,101817.84
2022-08-11T00:40:27.533Z,101815.84
2022-08-11T00:43:05.595Z,101818.69
2022-08-11T00:45:47.691Z,101822.94
2022-08-11T00:48:28.331Z,101819.13
2022-08-11T00:51:10.478Z,101824.81
2022-08-11T00:53:50.044Z,101830.16
2022-08-11T00:56:48.574Z,101817.47
2022-08-11T00:59:36.983Z,101817.63
2022-08-11T01:02:19.653Z,101818.25
2022-08-11T01:05:29.598Z,101820.91
2022-08-11T01:08:25.123Z,101817.03
2022-08-11T01:11:20.526Z,101812.31
2022-08-11T01:14:17.913Z,101818.88
2022-08-11T01:17:32.655Z,101820.66
2022-08-11T01:20:47.556Z,101809.66
2022-08-11T01:23:49.963Z,101820.78
2022-08-11T01:27:19.241Z,101815.25
2022-08-11T01:30:30.827Z,101816.66
2022-08-11T01:33:54.288Z,101811.78
2022-08-11T01:37:01.859Z,101811.00
2022-08-11T01:40:11.867Z,101807.53
2022-08-11T01:43:32.960Z,101805.72
2022-08-11T01:46:07.190Z,101814.84
2022-08-11T01:48:45.011Z,101808.47
2022-08-11T01:51:25.802Z,101813.38
2022-08-11T01:54:04.054Z,101812.16
2022-08-11T01:56:59.108Z,101817.28
2022-08-11T01:59:35.407Z,101816.06
2022-08-11T02:02:42.996Z,101814.16
2022-08-11T02:05:27.235Z,101821.81
2022-08-11T02:08:01.831Z,101823.81
2022-08-11T02:11:02.588Z,101822.78
2022-08-11T02:13:44.641Z,101810.09
2022-08-11T02:16:31.071Z,101817.94
2022-08-11T02:19:30.751Z,101813.75
2022-08-11T02:22:23.199Z,101807.69
2022-08-11T02:25:01.032Z,101817.34
2022-08-11T02:32:10.971Z,101812.84
2022-08-11T02:34:59.531Z,101810.09
2022-08-11T02:37:45.310Z,101810.53
2022-08-11T02:40:25.140Z,101809.97
2022-08-11T02:43:05.667Z,101808.84
2022-08-11T02:45:47.385Z,101815.44
2022-08-11T02:48:51.777Z,101809.22
2022-08-11T02:51:31.163Z,101812.91
2022-08-11T02:54:09.907Z,101815.41
2022-08-11T02:56:52.376Z,101805.78
2022-08-11T02:59:53.518Z,101808.91
2022-08-11T03:02:41.289Z,101808.69
2022-08-11T03:05:25.193Z,101809.53
2022-08-11T03:08:09.101Z,101805.88
2022-08-11T03:11:09.433Z,101811.25
2022-08-11T03:14:02.447Z,101808.50
2022-08-11T03:16:48.287Z,101805.66
2022-08-11T03:19:29.631Z,101803.78
2022-08-11T03:22:23.341Z,101797.06
2022-08-11T03:25:03.736Z,101805.66
2022-08-11T03:27:44.523Z,101808.69
2022-08-11T03:30:17.588Z,101805.13
2022-08-11T03:33:19.134Z,101803.53
2022-08-11T03:36:02.250Z,101800.41
2022-08-11T03:38:49.336Z,101794.31
2022-08-11T03:42:03.692Z,101804.25
2022-08-11T03:44:53.522Z,101802.38
2022-08-11T03:47:55.417Z,101813.69
2022-08-11T03:50:56.853Z,101807.72
2022-08-11T03:54:04.940Z,101814.81
2022-08-11T03:57:09.001Z,101802.69
2022-08-11T04:00:27.739Z,101803.28
2022-08-11T04:03:31.455Z,101818.97
2022-08-11T04:06:42.859Z,101818.19
2022-08-11T04:09:48.830Z,101821.81
2022-08-11T04:12:35.870Z,101824.06
2022-08-11T04:15:59.097Z,101827.22
2022-08-11T04:19:00.608Z,101814.25
2022-08-11T04:21:58.607Z,101813.09
2022-08-11T04:24:52.638Z,101807.81
2022-08-11T04:27:52.602Z,101813.47
2022-08-11T04:30:29.329Z,101812.09
2022-08-11T04:33:34.415Z,101815.31
2022-08-11T04:36:43.741Z,101807.16
2022-08-11T04:39:28.348Z,101809.59
2022-08-11T04:42:48.097Z,101805.63
2022-08-11T04:45:47.451Z,101808.44
2022-08-11T04:48:57.923Z,101805.94
2022-08-11T04:52:35.965Z,101815.03
2022-08-11T04:56:05.696Z,101816.91
2022-08-11T04:59:13.123Z,101816.19
2022-08-11T05:01:53.017Z,101813.13
2022-08-11T05:05:18.722Z,101813.28
2022-08-11T05:08:23.907Z,101806.75
2022-08-11T05:11:19.437Z,101823.16
2022-08-11T05:14:09.253Z,101825.72
2022-08-11T05:17:07.373Z,101822.31
2022-08-11T05:19:53.473Z,101832.88
2022-08-11T05:22:43.506Z,101834.38
2022-08-11T05:26:42.670Z,101838.41
2022-08-11T05:28:51.521Z,101845.72
2022-08-11T05:31:43.589Z,101845.91
2022-08-11T05:34:40.281Z,101850.09
2022-08-11T05:37:26.169Z,101850.75
2022-08-11T05:40:18.885Z,101845.22
2022-08-11T05:43:13.219Z,101843.94
2022-08-11T05:46:03.956Z,101849.03
2022-08-11T05:48:58.631Z,101844.19
2022-08-11T05:51:55.479Z,101841.03
2022-08-11T05:54:46.176Z,101843.56
2022-08-11T05:57:44.048Z,101848.47
2022-08-11T06:00:12.742Z,101843.41
2022-08-11T06:02:43.861Z,101847.25
2022-08-11T06:05:15.156Z,101842.22
2022-08-11T06:07:48.832Z,101841.72
2022-08-11T06:10:28.634Z,101843.81
2022-08-11T06:12:59.510Z,101843.00
2022-08-11T06:15:29.173Z,101839.88
2022-08-11T06:18:01.382Z,101845.34
2022-08-11T06:20:37.555Z,101840.81
2022-08-11T06:23:09.911Z,101842.78
2022-08-11T06:25:39.453Z,101841.41
2022-08-11T06:28:09.519Z,101833.81
2022-08-11T06:30:42.077Z,101834.72
2022-08-11T06:33:19.198Z,101840.88
2022-08-11T06:36:00.755Z,101833.56
2022-08-11T06:38:55.652Z,101837.81
2022-08-11T06:41:31.955Z,101839.34
2022-08-11T06:44:23.483Z,101831.25
2022-08-11T06:46:56.050Z,101843.66
2022-08-11T06:49:52.582Z,101843.03
2022-08-11T06:52:35.040Z,101841.91
2022-08-11T06:55:55.777Z,101827.88
2022-08-11T06:58:46.779Z,101842.47
2022-08-11T07:01:24.097Z,101841.81
2022-08-11T07:04:05.312Z,101844.34
2022-08-11T07:07:12.282Z,101841.28
2022-08-11T07:10:39.010Z,101851.69
2022-08-11T07:13:45.316Z,101841.56
2022-08-11T07:16:26.472Z,101842.66
2022-08-11T07:19:30.080Z,101845.91
2022-08-11T07:22:20.950Z,101848.69
2022-08-11T07:25:14.395Z,101846.78
2022-08-11T07:28:15.460Z,101839.75
2022-08-11T07:30:44.916Z,101844.38
2022-08-11T07:34:05.516Z,101836.38
2022-08-11T07:36:05.172Z,101837.16
2022-08-11T07:38:46.087Z,101844.63
2022-08-11T07:41:18.619Z,101829.84
2022-08-11T07:43:50.531Z,101830.63
2022-08-11T07:46:38.390Z,101841.63
2022-08-11T07:49:28.537Z,101836.78
2022-08-11T07:52:15.204Z,101830.78
2022-08-11T07:54:50.107Z,101832.13
2022-08-11T07:58:14.647Z,101834.53
2022-08-11T08:00:47.081Z,101827.25
2022-08-11T08:03:39.261Z,101828.94
2022-08-11T08:06:41.421Z,101820.66
2022-08-11T08:09:29.496Z,101818.94
2022-08-11T08:12:18.789Z,101826.53
2022-08-11T08:15:05.194Z,101826.00
2022-08-11T08:18:09.669Z,101824.69
2022-08-11T08:20:49.921Z,101833.78
2022-08-11T08:23:33.193Z,101837.00
2022-08-11T08:26:04.724Z,101837.41
2022-08-11T08:28:35.005Z,101829.94
2022-08-11T08:31:03.453Z,101832.22
2022-08-11T08:33:34.324Z,101834.53
2022-08-11T08:36:16.369Z,101837.22
2022-08-11T08:38:49.579Z,101835.59
2022-08-11T08:41:23.753Z,101829.44
2022-08-11T08:44:05.897Z,101831.34
2022-08-11T08:46:52.918Z,101830.34
2022-08-11T08:49:28.349Z,101827.09
2022-08-11T08:52:26.240Z,101839.31
2022-08-11T08:54:55.632Z,101832.31
2022-08-11T08:57:28.488Z,101837.00
2022-08-11T08:59:58.779Z,101834.84
2022-08-11T09:02:34.456Z,101845.69
2022-08-11T09:05:05.937Z,101835.41
2022-08-11T09:07:39.495Z,101835.50
2022-08-11T09:10:11.552Z,101838.34
2022-08-11T09:12:42.819Z,101837.94
2022-08-11T09:15:15.011Z,101826.50
2022-08-11T09:17:51.333Z,101834.19
2022-08-11T09:20:23.951Z,101832.78
2022-08-11T09:26:31.282Z,101821.31
2022-08-11T09:29:01.827Z,101823.72
2022-08-11T09:31:39.031Z,101826.03
2022-08-11T09:34:09.500Z,101819.31
2022-08-11T09:36:58.439Z,101826.56
2022-08-11T09:39:45.175Z,101826.00
2022-08-11T09:42:16.582Z,101822.41
2022-08-11T09:44:53.838Z,101816.72
2022-08-11T09:47:25.520Z,101815.50
2022-08-11T09:50:00.643Z,101815.00
2022-08-11T09:52:33.343Z,101810.31
2022-08-11T09:55:03.215Z,101814.56
2022-08-11T09:57:49.360Z,101802.03
2022-08-11T10:00:18.678Z,101803.75
2022-08-11T10:02:49.729Z,101808.03
2022-08-11T10:05:38.635Z,101811.78
2022-08-11T10:08:13.812Z,101814.06
2022-08-11T10:10:43.269Z,101801.91
2022-08-11T10:14:31.061Z,101795.13
2022-08-11T10:16:15.174Z,101790.28
2022-08-11T10:18:53.378Z,101790.16
2022-08-11T10:21:31.350Z,101786.47
2022-08-11T10:24:21.348Z,101792.16
2022-08-11T10:26:54.668Z,101786.69
2022-08-11T10:29:45.198Z,101788.88
2022-08-11T10:32:49.408Z,101782.91
2022-08-11T10:35:29.244Z,101768.78
2022-08-11T10:38:08.911Z,101774.28
2022-08-11T10:41:10.773Z,101769.09
2022-08-11T10:44:01.378Z,101766.69
2022-08-11T10:46:47.820Z,101763.81
2022-08-11T10:49:17.291Z,101761.31
2022-08-11T10:52:03.992Z,101753.47
2022-08-11T10:54:52.174Z,101758.25
2022-08-11T10:57:41.124Z,101751.47
2022-08-11T11:00:15.233Z,101751.88
2022-08-11T11:02:45.276Z,101757.44
2022-08-11T11:05:35.104Z,101749.25
2022-08-11T11:08:32.897Z,101754.75
2022-08-11T11:11:05.058Z,101741.41
2022-08-11T11:13:55.556Z,101743.84
2022-08-11T11:16:50.119Z,101733.09
2022-08-11T11:19:23.943Z,101735.06
2022-08-11T11:22:15.631Z,101732.53
2022-08-11T11:24:57.714Z,101717.19
2022-08-11T11:27:33.831Z,101718.88
2022-08-11T11:30:08.432Z,101719.75
2022-08-11T11:32:49.812Z,101709.38
2022-08-11T11:35:36.892Z,101715.06
2022-08-11T11:38:13.861Z,101707.22
2022-08-11T11:40:43.918Z,101714.03
2022-08-11T11:43:13.061Z,101704.31
2022-08-11T11:45:43.534Z,101697.75
2022-08-11T11:48:13.970Z,101701.38
2022-08-11T11:50:42.896Z,101700.22
2022-08-11T11:53:14.146Z,101695.84
2022-08-11T11:55:44.013Z,101698.81
2022-08-11T11:58:31.435Z,101698.16
2022-08-11T12:01:24.192Z,101693.13
2022-08-11T12:03:55.635Z,101689.69
2022-08-11T12:06:25.990Z,101680.06
2022-08-11T12:08:57.302Z,101676.72
2022-08-11T12:11:45.430Z,101683.91
2022-08-11T12:14:17.514Z,101679.41
2022-08-11T12:16:49.723Z,101682.66
2022-08-11T12:19:23.880Z,101668.34
2022-08-11T12:22:13.455Z,101665.13
2022-08-11T12:25:00.031Z,101664.28
2022-08-11T12:27:31.258Z,101661.91
2022-08-11T12:30:05.941Z,101658.66
2022-08-11T12:32:38.888Z,101656.53
2022-08-11T12:35:09.612Z,101648.41
2022-08-11T12:37:41.715Z,101654.28
2022-08-11T12:40:43.688Z,101645.56
2022-08-11T12:43:40.633Z,101638.63
2022-08-11T12:46:11.588Z,101632.03
2022-08-11T12:49:05.244Z,101624.47
2022-08-11T12:52:01.028Z,101631.91
2022-08-11T12:54:52.734Z,101630.81
2022-08-11T12:57:46.821Z,101623.16
2022-08-11T13:00:34.406Z,101629.19
2022-08-11T13:03:22.170Z,101624.66
2022-08-11T13:05:55.963Z,101615.78
2022-08-11T13:08:26.448Z,101614.81
2022-08-11T13:11:15.810Z,101612.03
2022-08-11T13:13:55.553Z,101610.28
2022-08-11T13:16:27.680Z,101596.72
2022-08-11T13:18:57.449Z,101607.97
2022-08-11T13:21:29.167Z,101602.78
2022-08-11T13:24:00.999Z,101607.81
2022-08-11T13:26:46.842Z,101596.00
2022-08-11T13:29:23.479Z,101601.56
2022-08-11T13:31:53.676Z,101588.91
2022-08-11T13:34:24.198Z,101598.59
2022-08-11T13:36:56.762Z,101594.47
2022-08-11T13:39:28.014Z,101601.84
2022-08-11T13:41:59.545Z,101595.88
2022-08-11T13:44:31.387Z,101588.66
2022-08-11T13:47:02.582Z,101588.28
2022-08-11T13:49:32.499Z,101586.63
2022-08-11T13:52:04.044Z,101589.50
2022-08-11T13:54:36.111Z,101588.31
2022-08-11T13:57:38.569Z,101587.84
2022-08-11T14:00:09.805Z,101583.59
2022-08-11T14:02:54.667Z,101576.47
2022-08-11T14:05:28.573Z,101578.50
2022-08-11T14:08:02.327Z,101570.94
2022-08-11T14:10:34.193Z,101564.03
2022-08-11T14:13:25.480Z,101567.00
2022-08-11T14:15:54.888Z,101573.59
2022-08-11T14:18:28.464Z,101569.69
2022-08-11T14:21:17.171Z,101573.50
2022-08-11T14:23:49.431Z,101555.53
2022-08-11T14:26:26.394Z,101564.19
2022-08-11T14:28:59.158Z,101555.88
2022-08-11T14:31:30.092Z,101564.03
2022-08-11T14:34:04.150Z,101563.22
2022-08-11T14:36:35.943Z,101560.03
2022-08-11T14:39:13.066Z,101562.59
2022-08-11T14:42:08.500Z,101549.44
2022-08-11T14:45:02.062Z,101550.63
2022-08-11T14:47:34.094Z,101537.72
2022-08-11T14:50:11.391Z,101552.41
2022-08-11T14:52:46.782Z,101540.00
2022-08-11T14:55:35.314Z,101540.16
2022-08-11T14:58:05.160Z,101545.59
2022-08-11T15:00:35.315Z,101533.72
2022-08-11T15:03:11.187Z,101531.13
2022-08-11T15:05:57.127Z,101538.13
2022-08-11T15:08:48.530Z,101534.78
2022-08-11T15:11:34.126Z,101547.41
2022-08-11T15:14:07.269Z,101529.50
2022-08-11T15:16:55.177Z,101523.72
2022-08-11T15:19:40.366Z,101522.91
2022-08-11T15:22:39.824Z,101517.56
2022-08-11T15:25:09.354Z,101513.84
2022-08-11T15:27:58.379Z,101507.91
2022-08-11T15:30:45.901Z,101506.22
2022-08-11T15:33:35.616Z,101508.84
2022-08-11T15:36:27.783Z,101510.63
2022-08-11T15:39:00.156Z,101500.19
2022-08-11T15:41:58.325Z,101495.63
2022-08-11T15:45:04.883Z,101502.47
2022-08-11T15:47:41.647Z,101494.50
2022-08-11T15:50:15.816Z,101490.19
2022-08-11T15:52:51.061Z,101482.19
2022-08-11T15:55:20.928Z,101484.44
2022-08-11T15:58:09.177Z,101478.69
2022-08-11T16:01:08.674Z,101480.81
2022-08-11T16:04:07.693Z,101486.69
2022-08-11T16:06:42.791Z,101485.34
2022-08-11T16:09:19.811Z,101481.75
2022-08-11T16:11:49.898Z,101479.41
2022-08-11T16:14:38.127Z,101477.31
2022-08-11T16:17:11.387Z,101474.94
2022-08-11T16:19:43.901Z,101471.16
2022-08-11T16:22:16.201Z,101465.84
2022-08-11T16:27:03.506Z,101458.25
2022-08-11T16:27:39.981Z,101479.78
2022-08-11T16:30:10.355Z,101471.59
2022-08-11T16:32:43.147Z,101469.47
2022-08-11T16:35:33.228Z,101466.13
2022-08-11T16:38:21.519Z,101466.59
2022-08-11T16:40:54.624Z,101472.03
2022-08-11T16:43:43.591Z,101465.13
2022-08-11T16:46:32.617Z,101463.00
2022-08-11T16:49:05.707Z,101460.25
2022-08-11T16:51:34.636Z,101460.25
2022-08-11T16:54:05.724Z,101470.47
2022-08-11T16:56:38.593Z,101457.53
2022-08-11T16:59:16.606Z,101455.28
2022-08-11T17:01:53.514Z,101451.28
2022-08-11T17:04:55.448Z,101451.84
2022-08-11T17:07:44.599Z,101450.88
2022-08-11T17:10:51.924Z,101457.41
2022-08-11T17:13:28.841Z,101451.59
2022-08-11T17:16:09.052Z,101451.50
2022-08-11T17:18:50.069Z,101455.03
2022-08-11T17:21:26.331Z,101452.38
2022-08-11T17:23:57.127Z,101448.41
2022-08-11T17:26:51.576Z,101443.56
2022-08-11T17:29:24.572Z,101451.50
2022-08-11T17:32:11.544Z,101448.63
2022-08-11T17:35:10.176Z,101448.31
2022-08-11T17:37:41.739Z,101438.69
2022-08-11T17:40:13.436Z,101437.28
2022-08-11T17:43:01.733Z,101444.75
2022-08-11T17:45:48.643Z,101442.34
2022-08-11T17:48:27.665Z,101439.97
2022-08-11T17:50:59.240Z,101449.59
2022-08-11T17:54:10.164Z,101447.38
2022-08-11T17:56:56.461Z,101443.69
2022-08-11T17:59:43.824Z,101445.72
2022-08-11T18:02:36.916Z,101444.50
2022-08-11T18:05:12.349Z,101450.78
2022-08-11T18:08:00.650Z,101443.75
2022-08-11T18:10:51.422Z,101451.78
2022-08-11T18:13:40.483Z,101451.66
2022-08-11T18:16:27.421Z,101455.63
2022-08-11T18:19:14.305Z,101459.31
2022-08-11T18:22:14.207Z,101458.34
2022-08-11T18:25:08.984Z,101465.47
2022-08-11T18:28:00.629Z,101454.38
2022-08-11T18:30:49.436Z,101461.59
2022-08-11T18:34:03.721Z,101456.75
2022-08-11T18:36:52.831Z,101459.06
2022-08-11T18:39:42.151Z,101453.69
2022-08-11T18:42:33.919Z,101452.16
2022-08-11T18:45:26.221Z,101456.63
2022-08-11T18:48:20.820Z,101457.22
2022-08-11T18:51:30.447Z,101454.75
2022-08-11T18:54:18.959Z,101453.75
2022-08-11T18:57:06.407Z,101462.00
2022-08-11T18:59:57.061Z,101459.06
2022-08-11T19:02:49.598Z,101467.75
2022-08-11T19:06:31.895Z,101465.03
2022-08-11T19:08:49.702Z,101465.72
2022-08-11T19:11:42.611Z,101484.38
2022-08-11T19:14:30.923Z,101475.41
2022-08-11T19:17:43.971Z,101481.81
2022-08-11T19:20:30.176Z,101487.94
2022-08-11T19:23:17.666Z,101487.25
2022-08-11T19:26:05.442Z,101491.88
2022-08-11T19:28:53.290Z,101483.03
2022-08-11T19:31:44.019Z,101488.31
2022-08-11T19:34:32.574Z,101492.41
2022-08-11T19:37:24.767Z,101498.47
2022-08-11T19:40:12.744Z,101497.97
2022-08-11T19:43:01.639Z,101497.28
2022-08-11T19:45:52.802Z,101503.91
2022-08-11T19:48:41.308Z,101499.13
2022-08-11T19:51:28.872Z,101503.34
2022-08-11T19:54:17.635Z,101505.91
2022-08-11T19:57:06.581Z,101506.25
2022-08-11T19:59:54.092Z,101498.25
2022-08-11T20:02:40.543Z,101499.03
2022-08-11T20:05:27.660Z,101503.19
2022-08-11T20:08:16.827Z,101500.84
2022-08-11T20:11:08.533Z,101504.06
2022-08-11T20:13:56.555Z,101505.53
2022-08-11T20:16:44.309Z,101499.94
2022-08-11T20:19:55.288Z,101506.00
2022-08-11T20:22:38.801Z,101503.47
2022-08-11T20:25:26.982Z,101505.19
2022-08-11T20:28:15.437Z,101507.53
2022-08-11T20:31:04.367Z,101507.38
2022-08-11T20:33:51.645Z,101508.75
2022-08-11T20:36:38.157Z,101515.97
2022-08-11T20:39:25.719Z,101510.44
2022-08-11T20:42:13.895Z,101503.97
2022-08-11T20:45:02.716Z,101511.31
2022-08-11T20:47:59.602Z,101504.81
2022-08-11T20:50:47.694Z,101516.34
2022-08-11T20:53:39.148Z,101515.88
2022-08-11T20:56:28.258Z,101521.53
2022-08-11T20:59:18.309Z,101517.56
2022-08-11T21:02:09.752Z,101520.72
2022-08-11T21:04:57.191Z,101518.06
2022-08-11T21:07:55.505Z,101518.38
2022-08-11T21:10:46.726Z,101516.41
2022-08-11T21:13:36.955Z,101525.75
2022-08-11T21:16:27.283Z,101523.78
2022-08-11T21:20:01.636Z,101523.59
2022-08-11T21:22:33.722Z,101533.91
2022-08-11T21:25:21.303Z,101530.06
2022-08-11T21:28:10.786Z,101527.91
2022-08-11T21:30:58.424Z,101530.25
2022-08-11T21:33:47.071Z,101518.41
2022-08-11T21:36:36.516Z,101527.41
2022-08-11T21:39:25.820Z,101529.41
2022-08-11T21:42:13.082Z,101521.06
2022-08-11T21:45:01.582Z,101530.56
2022-08-11T21:47:49.435Z,101525.53
2022-08-11T21:50:47.652Z,101522.19
2022-08-11T21:53:36.253Z,101518.22
2022-08-11T21:56:26.192Z,101531.69
2022-08-11T21:59:14.982Z,101524.69
2022-08-11T22:02:01.888Z,101521.03
2022-08-11T22:04:50.948Z,101523.66
2022-08-11T22:07:40.886Z,101520.78
2022-08-11T22:10:42.176Z,101518.59
2022-08-11T22:13:30.542Z,101514.28
2022-08-11T22:16:17.428Z,101525.09
2022-08-11T22:19:04.960Z,101524.09
2022-08-11T22:22:03.767Z,101516.75
2022-08-11T22:24:51.997Z,101520.91
2022-08-11T22:27:39.896Z,101515.53
2022-08-11T22:30:28.302Z,101515.84
2022-08-11T22:33:16.593Z,101514.88
2022-08-11T22:36:05.402Z,101509.69
2022-08-11T22:38:53.634Z,101514.31
2022-08-11T22:41:40.709Z,101514.47
2022-08-11T22:44:28.556Z,101515.97
2022-08-11T22:47:18.348Z,101512.41
2022-08-11T22:50:08.586Z,101512.13
2022-08-11T22:52:55.475Z,101518.22
2022-08-11T22:55:43.004Z,101515.69
2022-08-11T22:58:30.487Z,101521.81
2022-08-11T23:01:18.606Z,101515.28
2022-08-11T23:04:06.658Z,101515.13
2022-08-11T23:06:53.976Z,101513.75
2022-08-11T23:09:42.077Z,101511.56
2022-08-11T23:12:28.680Z,101507.72
2022-08-11T23:15:15.680Z,101515.03
2022-08-11T23:18:04.209Z,101515.19
2022-08-11T23:20:54.585Z,101511.84
2022-08-11T23:23:43.981Z,101514.78
2022-08-11T23:26:30.423Z,101516.78
2022-08-11T23:29:18.342Z,101509.94
2022-08-11T23:32:06.087Z,101506.56
2022-08-11T23:35:36.969Z,101507.53
2022-08-11T23:38:03.013Z,101508.50
2022-08-11T23:40:49.216Z,101505.78
2022-08-11T23:43:38.829Z,101503.47
2022-08-11T23:46:25.313Z,101503.41
2022-08-11T23:49:15.197Z,101498.06
2022-08-11T23:52:03.633Z,101492.47
2022-08-11T23:54:50.892Z,101500.22
2022-08-11T23:57:37.348Z,101492.47
